createdAt,value
2018-06-28T00:00:52.589Z,48.72
2018-06-28T00:03:24.393Z,48.71
2018-06-28T00:05:53.113Z,48.91
2018-06-28T00:08:21.799Z,49.19
2018-06-28T00:10:50.483Z,48.88
2018-06-28T00:13:20.357Z,49.56
2018-06-28T00:15:49.097Z,49.33
2018-06-28T00:18:17.821Z,48.92
2018-06-28T00:20:46.439Z,49.28
2018-06-28T00:23:15.149Z,49.10
2018-06-28T00:25:44.036Z,50.24
2018-06-28T00:28:12.850Z,50.10
2018-06-28T00:30:41.649Z,49.44
2018-06-28T00:33:10.315Z,49.89
2018-06-28T00:35:38.972Z,50.24
2018-06-28T00:38:07.864Z,50.07
2018-06-28T00:40:36.725Z,51.01
2018-06-28T00:43:05.333Z,51.65
2018-06-28T00:45:34.237Z,51.30
2018-06-28T00:48:03.124Z,51.36
2018-06-28T00:50:31.891Z,51.90
2018-06-28T00:53:00.665Z,51.30
2018-06-28T00:55:29.354Z,51.51
2018-06-28T00:57:58.108Z,51.63
2018-06-28T01:00:26.869Z,51.32
2018-06-28T01:02:55.554Z,51.47
2018-06-28T01:05:24.313Z,51.25
2018-06-28T01:07:57.151Z,51.62
2018-06-28T01:10:25.872Z,51.09
2018-06-28T01:12:54.597Z,51.13
2018-06-28T01:15:24.473Z,51.72
2018-06-28T01:17:53.260Z,51.68
2018-06-28T01:20:21.977Z,51.67
2018-06-28T01:22:50.768Z,51.80
2018-06-28T01:25:19.688Z,51.73
2018-06-28T01:27:48.398Z,51.83
2018-06-28T01:30:17.180Z,51.91
2018-06-28T01:32:45.946Z,53.07
2018-06-28T01:35:14.601Z,52.63
2018-06-28T01:37:43.373Z,52.19
2018-06-28T01:40:12.200Z,52.18
2018-06-28T01:42:51.713Z,52.30
2018-06-28T01:45:20.436Z,51.93
2018-06-28T01:47:49.010Z,52.36
2018-06-28T01:50:17.732Z,52.49
2018-06-28T01:52:46.766Z,52.80
2018-06-28T01:55:15.494Z,53.19
2018-06-28T01:57:44.353Z,53.26
2018-06-28T02:00:13.148Z,53.69
2018-06-28T02:02:41.963Z,53.87
2018-06-28T02:05:10.750Z,53.89
2018-06-28T02:07:39.533Z,53.76
2018-06-28T02:10:08.406Z,53.95
2018-06-28T02:12:37.108Z,54.53
2018-06-28T02:15:07.351Z,54.68
2018-06-28T02:17:36.126Z,54.84
2018-06-28T02:20:05.100Z,55.23
2018-06-28T02:22:33.965Z,55.37
2018-06-28T02:25:02.723Z,56.05
2018-06-28T02:27:31.380Z,55.92
2018-06-28T02:30:00.253Z,56.54
2018-06-28T02:32:28.980Z,56.22
2018-06-28T02:34:57.782Z,56.16
2018-06-28T02:37:26.518Z,56.53
2018-06-28T02:39:55.305Z,56.28
2018-06-28T02:42:23.994Z,56.59
2018-06-28T02:44:52.678Z,56.85
2018-06-28T02:47:21.494Z,56.78
2018-06-28T02:49:50.399Z,56.52
2018-06-28T02:52:19.094Z,57.03
2018-06-28T02:54:47.960Z,56.41
2018-06-28T02:57:16.640Z,56.29
2018-06-28T02:59:45.379Z,56.27
2018-06-28T03:02:14.050Z,56.92
2018-06-28T03:04:42.776Z,56.51
2018-06-28T03:07:11.664Z,56.71
2018-06-28T03:09:40.421Z,57.03
2018-06-28T03:12:09.223Z,56.80
2018-06-28T03:14:37.982Z,56.98
2018-06-28T03:17:06.685Z,56.47
2018-06-28T03:19:35.465Z,57.36
2018-06-28T03:22:04.291Z,56.53
2018-06-28T03:24:33.020Z,57.03
2018-06-28T03:27:01.759Z,57.37
2018-06-28T03:29:30.557Z,57.32
2018-06-28T03:31:59.300Z,57.92
2018-06-28T03:34:28.034Z,57.15
2018-06-28T03:36:57.010Z,57.71
2018-06-28T03:39:25.793Z,57.14
2018-06-28T03:41:54.622Z,57.60
2018-06-28T03:44:23.348Z,57.71
2018-06-28T03:46:52.187Z,57.38
2018-06-28T03:49:20.847Z,57.79
2018-06-28T03:51:49.588Z,58.29
2018-06-28T03:54:18.417Z,57.87
2018-06-28T03:56:47.192Z,57.13
2018-06-28T03:59:15.960Z,57.23
2018-06-28T04:01:44.741Z,56.94
2018-06-28T04:04:13.477Z,57.05
2018-06-28T04:06:42.266Z,57.32
2018-06-28T04:09:11.997Z,57.60
2018-06-28T04:11:40.764Z,57.13
2018-06-28T04:14:09.476Z,57.44
2018-06-28T04:16:38.381Z,57.37
2018-06-28T04:19:06.992Z,56.65
2018-06-28T04:21:35.687Z,56.44
2018-06-28T04:24:04.425Z,56.65
2018-06-28T04:26:33.156Z,55.99
2018-06-28T04:29:01.892Z,56.45
2018-06-28T04:31:30.708Z,56.39
2018-06-28T04:33:59.702Z,55.98
2018-06-28T04:36:28.377Z,55.63
2018-06-28T04:38:57.065Z,59.86
2018-06-28T04:41:25.707Z,59.80
2018-06-28T04:43:54.585Z,58.80
2018-06-28T04:46:23.361Z,56.48
2018-06-28T04:48:52.033Z,57.33
2018-06-28T04:51:20.760Z,58.33
2018-06-28T04:53:49.483Z,54.93
2018-06-28T04:56:18.261Z,55.82
2018-06-28T04:58:47.100Z,53.21
2018-06-28T05:01:16.039Z,54.48
2018-06-28T05:03:44.847Z,54.71
2018-06-28T05:06:13.601Z,53.98
2018-06-28T05:08:42.516Z,53.29
2018-06-28T05:11:11.361Z,53.95
2018-06-28T05:13:40.033Z,54.39
2018-06-28T05:16:08.802Z,55.20
2018-06-28T05:18:37.604Z,54.29
2018-06-28T05:21:06.545Z,53.15
2018-06-28T05:23:35.428Z,53.70
2018-06-28T05:26:04.307Z,55.50
2018-06-28T05:28:32.929Z,55.00
2018-06-28T05:31:01.907Z,55.70
2018-06-28T05:33:30.684Z,51.01
2018-06-28T05:35:59.454Z,52.25
2018-06-28T05:38:28.182Z,51.34
2018-06-28T05:40:57.094Z,52.20
2018-06-28T05:43:25.819Z,52.16
2018-06-28T05:45:54.924Z,50.48
2018-06-28T05:48:23.745Z,49.95
2018-06-28T05:50:52.506Z,50.74
2018-06-28T05:53:21.442Z,49.89
2018-06-28T05:55:50.351Z,48.94
2018-06-28T05:58:19.224Z,49.93
2018-06-28T06:00:48.027Z,46.85
2018-06-28T06:03:16.893Z,48.76
2018-06-28T06:05:45.597Z,47.37
2018-06-28T06:08:14.439Z,46.00
2018-06-28T06:10:43.035Z,48.03
2018-06-28T06:13:11.795Z,47.99
2018-06-28T06:15:40.602Z,45.81
2018-06-28T06:18:09.360Z,46.40
2018-06-28T06:20:37.973Z,46.50
2018-06-28T06:23:07.016Z,45.71
2018-06-28T06:25:35.687Z,43.88
2018-06-28T06:28:04.502Z,44.31
2018-06-28T06:30:33.396Z,44.39
2018-06-28T06:33:02.357Z,43.34
2018-06-28T06:35:31.180Z,44.10
2018-06-28T06:37:59.954Z,42.58
2018-06-28T06:40:28.641Z,44.00
2018-06-28T06:42:57.379Z,42.57
2018-06-28T06:45:26.143Z,44.72
2018-06-28T06:47:54.945Z,44.64
2018-06-28T06:50:23.771Z,42.06
2018-06-28T06:52:52.549Z,41.96
2018-06-28T06:55:21.291Z,42.80
2018-06-28T06:57:50.029Z,41.28
2018-06-28T07:00:18.834Z,41.41
2018-06-28T07:02:47.629Z,42.04
2018-06-28T07:05:16.522Z,41.94
2018-06-28T07:07:45.344Z,41.35
2018-06-28T07:10:14.401Z,40.55
2018-06-28T07:12:43.136Z,41.33
2018-06-28T07:15:12.680Z,40.73
2018-06-28T07:17:41.522Z,41.47
2018-06-28T07:20:10.291Z,40.09
2018-06-28T07:22:38.931Z,39.52
2018-06-28T07:25:07.795Z,39.89
2018-06-28T07:27:36.679Z,39.60
2018-06-28T07:30:06.356Z,38.95
2018-06-28T07:32:35.142Z,38.41
2018-06-28T07:35:04.110Z,37.90
2018-06-28T07:37:32.858Z,39.08
2018-06-28T07:40:01.705Z,38.34
2018-06-28T07:42:30.465Z,38.09
2018-06-28T07:44:59.362Z,38.14
2018-06-28T07:47:28.073Z,37.62
2018-06-28T07:49:57.065Z,36.89
2018-06-28T07:52:25.700Z,37.13
2018-06-28T07:54:54.433Z,36.34
2018-06-28T07:57:23.251Z,37.06
2018-06-28T07:59:52.053Z,36.28
2018-06-28T08:02:20.733Z,35.53
2018-06-28T08:04:49.583Z,35.74
2018-06-28T08:07:18.194Z,34.95
2018-06-28T08:09:47.212Z,36.45
2018-06-28T08:12:15.989Z,36.25
2018-06-28T08:14:44.850Z,35.50
2018-06-28T08:17:13.580Z,35.04
2018-06-28T08:19:42.398Z,35.20
2018-06-28T08:22:11.229Z,35.73
2018-06-28T08:24:40.037Z,35.05
2018-06-28T08:27:08.927Z,34.67
2018-06-28T08:29:37.749Z,35.17
2018-06-28T08:32:06.674Z,34.22
2018-06-28T08:34:35.449Z,34.27
2018-06-28T08:37:04.263Z,33.35
2018-06-28T08:39:33.138Z,32.35
2018-06-28T08:42:01.914Z,32.44
2018-06-28T08:44:30.641Z,32.62
2018-06-28T08:46:59.349Z,31.65
2018-06-28T08:49:28.188Z,30.26
2018-06-28T08:51:56.970Z,31.47
2018-06-28T08:54:25.776Z,30.96
2018-06-28T08:56:54.526Z,30.81
2018-06-28T08:59:23.304Z,30.68
2018-06-28T09:01:52.507Z,30.43
2018-06-28T09:04:21.267Z,30.63
2018-06-28T09:06:50.099Z,30.23
2018-06-28T09:09:18.845Z,29.73
2018-06-28T09:11:47.597Z,29.35
2018-06-28T09:14:16.434Z,30.35
2018-06-28T09:16:45.157Z,29.74
2018-06-28T09:19:13.944Z,29.93
2018-06-28T09:21:42.801Z,29.09
2018-06-28T09:24:11.542Z,29.75
2018-06-28T09:26:40.398Z,29.49
2018-06-28T09:29:09.138Z,29.78
2018-06-28T09:31:37.857Z,29.50
2018-06-28T09:34:06.679Z,28.89
2018-06-28T09:36:35.521Z,28.34
2018-06-28T09:39:05.402Z,28.75
2018-06-28T09:41:34.227Z,28.33
2018-06-28T09:44:03.082Z,27.93
2018-06-28T09:46:31.779Z,27.86
2018-06-28T09:49:00.521Z,26.62
2018-06-28T09:51:29.305Z,26.83
2018-06-28T09:53:58.016Z,26.58
2018-06-28T09:56:26.726Z,25.47
2018-06-28T09:58:55.453Z,26.67
2018-06-28T10:01:24.280Z,26.92
2018-06-28T10:03:53.004Z,28.22
2018-06-28T10:06:21.754Z,27.04
2018-06-28T10:08:50.546Z,26.62
2018-06-28T10:11:19.314Z,26.92
2018-06-28T10:13:48.020Z,27.32
2018-06-28T10:16:16.724Z,26.74
2018-06-28T10:18:45.477Z,26.79
2018-06-28T10:21:14.470Z,26.42
2018-06-28T10:23:43.383Z,26.77
2018-06-28T10:26:12.191Z,26.30
2018-06-28T10:28:40.933Z,25.75
2018-06-28T10:31:10.093Z,25.63
2018-06-28T10:33:38.839Z,26.34
2018-06-28T10:36:07.685Z,27.11
2018-06-28T10:38:36.517Z,27.51
2018-06-28T10:41:05.976Z,28.24
2018-06-28T10:43:34.898Z,29.93
2018-06-28T10:46:03.670Z,31.04
2018-06-28T10:48:32.377Z,31.23
2018-06-28T10:51:02.473Z,32.33
2018-06-28T10:53:35.025Z,32.97
2018-06-28T10:56:04.225Z,33.48
2018-06-28T10:58:33.125Z,34.58
2018-06-28T11:01:01.944Z,35.10
2018-06-28T11:03:30.735Z,36.45
2018-06-28T11:05:59.444Z,36.78
2018-06-28T11:08:28.423Z,37.60
2018-06-28T11:10:57.335Z,37.47
2018-06-28T11:13:26.269Z,37.12
2018-06-28T11:15:55.569Z,37.27
2018-06-28T11:18:24.353Z,37.91
2018-06-28T11:20:53.066Z,37.75
2018-06-28T11:23:21.939Z,37.89
2018-06-28T11:25:50.754Z,37.14
2018-06-28T11:28:19.478Z,37.36
2018-06-28T11:30:48.267Z,38.16
2018-06-28T11:33:17.050Z,37.70
2018-06-28T11:35:45.830Z,37.79
2018-06-28T11:38:14.687Z,37.46
2018-06-28T11:40:43.545Z,37.40
2018-06-28T11:43:12.553Z,36.76
2018-06-28T11:45:41.432Z,35.45
2018-06-28T11:48:10.448Z,36.53
2018-06-28T11:50:39.217Z,37.00
2018-06-28T11:53:09.298Z,37.09
2018-06-28T11:55:38.224Z,35.98
2018-06-28T11:58:07.155Z,35.99
2018-06-28T12:00:36.111Z,36.38
2018-06-28T12:03:04.857Z,37.19
2018-06-28T12:05:33.694Z,36.56
2018-06-28T12:08:02.665Z,37.03
2018-06-28T12:10:31.472Z,36.97
2018-06-28T12:13:00.292Z,37.46
2018-06-28T12:15:29.170Z,36.78
2018-06-28T12:17:57.984Z,40.87
2018-06-28T12:20:26.846Z,39.84
2018-06-28T12:22:56.018Z,39.37
2018-06-28T12:25:24.986Z,40.25
2018-06-28T12:27:53.760Z,40.08
2018-06-28T12:30:22.455Z,39.44
2018-06-28T12:32:51.419Z,38.48
2018-06-28T12:35:20.190Z,37.77
2018-06-28T12:37:49.198Z,36.21
2018-06-28T12:40:18.029Z,37.04
2018-06-28T12:42:46.896Z,36.91
2018-06-28T12:45:17.984Z,37.21
2018-06-28T12:47:54.693Z,37.15
2018-06-28T12:50:23.757Z,38.06
2018-06-28T12:52:54.848Z,37.67
2018-06-28T12:55:24.153Z,37.80
2018-06-28T12:57:54.989Z,37.58
2018-06-28T13:00:23.773Z,37.87
2018-06-28T13:02:52.490Z,38.30
2018-06-28T13:05:21.417Z,37.27
2018-06-28T13:07:50.274Z,36.81
2018-06-28T13:10:19.405Z,36.70
2018-06-28T13:12:48.220Z,37.32
2018-06-28T13:15:19.029Z,37.77
2018-06-28T13:17:47.776Z,38.87
2018-06-28T13:20:16.620Z,40.46
2018-06-28T13:22:45.320Z,40.98
2018-06-28T13:25:14.398Z,42.51
2018-06-28T13:27:43.097Z,43.83
2018-06-28T13:30:11.787Z,44.82
2018-06-28T13:32:40.519Z,44.36
2018-06-28T13:35:09.570Z,44.95
2018-06-28T13:37:38.865Z,45.69
2018-06-28T13:40:08.164Z,46.46
2018-06-28T13:42:37.100Z,46.08
2018-06-28T13:45:06.359Z,45.31
2018-06-28T13:47:35.137Z,44.35
2018-06-28T13:50:04.130Z,44.33
2018-06-28T13:52:33.071Z,45.09
2018-06-28T13:55:02.189Z,44.57
2018-06-28T13:57:31.889Z,43.98
2018-06-28T14:00:00.896Z,40.19
2018-06-28T14:02:29.757Z,35.24
2018-06-28T14:04:58.722Z,32.72
2018-06-28T14:07:27.553Z,33.00
2018-06-28T14:09:59.318Z,33.74
2018-06-28T14:12:28.043Z,34.33
2018-06-28T14:14:56.842Z,34.41
2018-06-28T14:17:25.789Z,36.24
2018-06-28T14:19:54.770Z,37.70
2018-06-28T14:22:23.661Z,37.87
2018-06-28T14:24:52.664Z,39.16
2018-06-28T14:27:21.359Z,39.87
2018-06-28T14:29:50.151Z,40.34
2018-06-28T14:32:18.939Z,41.77
2018-06-28T14:34:47.859Z,42.66
2018-06-28T14:37:16.683Z,43.41
2018-06-28T14:39:45.663Z,44.09
2018-06-28T14:42:14.475Z,44.35
2018-06-28T14:44:43.218Z,44.02
2018-06-28T14:47:12.456Z,43.74
2018-06-28T14:49:41.344Z,43.99
2018-06-28T14:52:10.300Z,45.79
2018-06-28T14:54:39.244Z,46.74
2018-06-28T14:57:08.082Z,47.51
2018-06-28T14:59:36.928Z,47.87
2018-06-28T15:02:05.730Z,47.35
2018-06-28T15:04:34.605Z,47.48
2018-06-28T15:07:03.606Z,47.52
2018-06-28T15:09:32.375Z,47.91
2018-06-28T15:12:01.315Z,47.71
2018-06-28T15:14:30.203Z,48.39
2018-06-28T15:16:59.581Z,50.42
2018-06-28T15:19:28.520Z,49.68
2018-06-28T15:21:57.540Z,51.57
2018-06-28T15:24:26.508Z,49.23
2018-06-28T15:26:55.383Z,50.58
2018-06-28T15:29:24.435Z,50.68
2018-06-28T15:31:53.319Z,50.54
2018-06-28T15:34:22.055Z,51.55
2018-06-28T15:36:50.849Z,53.85
2018-06-28T15:39:19.540Z,54.89
2018-06-28T15:41:48.312Z,52.96
2018-06-28T15:44:17.018Z,52.59
2018-06-28T15:46:45.841Z,52.29
2018-06-28T15:49:14.668Z,52.35
2018-06-28T15:51:43.458Z,52.65
2018-06-28T15:54:12.439Z,50.58
2018-06-28T15:56:41.596Z,50.56
2018-06-28T15:59:10.326Z,50.83
2018-06-28T16:01:39.169Z,53.09
2018-06-28T16:04:08.038Z,52.83
2018-06-28T16:06:36.869Z,52.28
2018-06-28T16:09:08.277Z,52.90
2018-06-28T16:11:37.155Z,54.33
2018-06-28T16:14:05.922Z,52.58
2018-06-28T16:16:34.705Z,53.42
2018-06-28T16:19:03.547Z,53.54
2018-06-28T16:21:32.397Z,54.66
2018-06-28T16:24:01.161Z,54.82
2018-06-28T16:26:29.930Z,55.05
2018-06-28T16:28:58.769Z,54.14
2018-06-28T16:31:27.584Z,52.97
2018-06-28T16:33:56.447Z,50.88
2018-06-28T16:36:25.277Z,51.71
2018-06-28T16:38:53.905Z,51.86
2018-06-28T16:41:22.954Z,51.27
2018-06-28T16:43:51.663Z,51.00
2018-06-28T16:46:20.571Z,50.80
2018-06-28T16:48:49.320Z,51.09
2018-06-28T16:51:17.965Z,50.86
2018-06-28T16:53:46.770Z,49.80
2018-06-28T16:56:15.719Z,49.05
2018-06-28T16:58:44.540Z,49.09
2018-06-28T17:01:13.460Z,49.05
2018-06-28T17:03:42.193Z,49.51
2018-06-28T17:06:11.053Z,49.44
2018-06-28T17:08:40.706Z,48.96
2018-06-28T17:11:09.583Z,49.24
2018-06-28T17:13:38.394Z,52.09
2018-06-28T17:16:07.252Z,51.46
2018-06-28T17:18:35.939Z,50.82
2018-06-28T17:21:04.862Z,52.21
2018-06-28T17:23:33.793Z,51.07
2018-06-28T17:26:02.851Z,52.27
2018-06-28T17:28:31.575Z,51.93
2018-06-28T17:31:00.270Z,52.61
2018-06-28T17:33:29.069Z,53.41
2018-06-28T17:35:58.030Z,52.59
2018-06-28T17:38:26.997Z,53.51
2018-06-28T17:40:55.775Z,54.12
2018-06-28T17:43:24.660Z,53.94
2018-06-28T17:45:53.606Z,52.57
2018-06-28T17:48:22.607Z,52.42
2018-06-28T17:50:51.339Z,51.31
2018-06-28T17:53:20.409Z,51.35
2018-06-28T17:55:49.215Z,51.33
2018-06-28T17:58:18.027Z,52.42
2018-06-28T18:00:46.788Z,52.52
2018-06-28T18:03:15.649Z,52.17
2018-06-28T18:05:44.531Z,52.40
2018-06-28T18:08:13.599Z,52.52
2018-06-28T18:10:42.721Z,54.34
2018-06-28T18:13:11.605Z,55.64
2018-06-28T18:15:40.639Z,55.43
2018-06-28T18:18:09.463Z,56.01
2018-06-28T18:20:38.195Z,56.99
2018-06-28T18:23:07.098Z,57.00
2018-06-28T18:25:35.811Z,56.96
2018-06-28T18:28:04.601Z,57.91
2018-06-28T18:30:33.700Z,58.60
2018-06-28T18:33:02.539Z,60.08
2018-06-28T18:35:31.695Z,60.96
2018-06-28T18:38:00.530Z,60.94
2018-06-28T18:40:29.410Z,60.59
2018-06-28T18:42:58.407Z,60.08
2018-06-28T18:45:27.285Z,60.85
2018-06-28T18:47:56.014Z,60.15
2018-06-28T18:50:25.072Z,59.59
2018-06-28T18:52:53.890Z,60.90
2018-06-28T18:55:22.786Z,60.46
2018-06-28T18:57:52.320Z,60.00
2018-06-28T19:00:21.865Z,59.56
2018-06-28T19:02:52.025Z,59.10
2018-06-28T19:05:21.665Z,58.01
2018-06-28T19:07:51.792Z,57.77
2018-06-28T19:10:25.540Z,57.85
2018-06-28T19:12:54.793Z,58.23
2018-06-28T19:15:31.482Z,58.83
2018-06-28T19:18:00.642Z,58.60
2018-06-28T19:20:29.672Z,58.93
2018-06-28T19:23:03.708Z,60.08
2018-06-28T19:25:33.577Z,60.95
2018-06-28T19:28:03.801Z,62.21
2018-06-28T19:30:38.887Z,60.91
2018-06-28T19:33:14.355Z,60.51
2018-06-28T19:35:43.112Z,60.90
2018-06-28T19:38:13.261Z,61.55
2018-06-28T19:40:48.085Z,62.55
2018-06-28T19:43:16.930Z,61.64
2018-06-28T19:45:47.299Z,61.94
2018-06-28T19:48:16.604Z,61.97
2018-06-28T19:50:51.944Z,61.89
2018-06-28T19:53:20.827Z,61.95
2018-06-28T19:55:49.668Z,61.21
2018-06-28T19:58:19.543Z,61.10
2018-06-28T20:00:53.576Z,61.73
2018-06-28T20:03:27.565Z,61.61
2018-06-28T20:05:56.473Z,62.42
2018-06-28T20:11:28.508Z,62.04
2018-06-28T20:14:02.584Z,61.33
2018-06-28T20:16:36.399Z,61.85
2018-06-28T20:19:10.335Z,62.13
2018-06-28T20:21:39.246Z,61.19
2018-06-28T20:24:08.364Z,60.13
2018-06-28T20:26:42.520Z,59.53
2018-06-28T20:29:16.354Z,60.24
2018-06-28T20:31:50.591Z,60.45
2018-06-28T20:34:19.492Z,60.36
2018-06-28T20:36:48.882Z,60.26
2018-06-28T20:39:17.992Z,59.29
2018-06-28T20:41:47.956Z,59.36
2018-06-28T20:44:19.145Z,59.41
2018-06-28T20:46:47.988Z,60.11
2018-06-28T20:49:17.080Z,59.92
2018-06-28T20:51:50.905Z,59.35
2018-06-28T20:54:25.545Z,58.21
2018-06-28T20:56:55.864Z,57.83
2018-06-28T20:59:25.475Z,57.27
2018-06-28T21:02:06.595Z,57.83
2018-06-28T21:04:41.148Z,57.97
2018-06-28T21:07:10.392Z,57.91
2018-06-28T21:09:57.356Z,57.84
2018-06-28T21:13:14.134Z,57.85
2018-06-28T21:16:05.141Z,57.52
2018-06-28T21:18:37.075Z,57.99
2018-06-28T21:21:06.247Z,57.69
2018-06-28T21:23:35.116Z,57.58
2018-06-28T21:26:03.886Z,57.61
2018-06-28T21:28:32.650Z,57.67
2018-06-28T21:31:01.617Z,58.13
2018-06-28T21:33:30.509Z,57.62
2018-06-28T21:35:59.228Z,57.73
2018-06-28T21:38:29.791Z,57.58
2018-06-28T21:40:58.684Z,57.52
2018-06-28T21:43:27.591Z,56.87
2018-06-28T21:45:56.727Z,57.19
2018-06-28T21:48:25.510Z,57.08
2018-06-28T21:50:54.197Z,56.95
2018-06-28T21:53:22.991Z,56.51
2018-06-28T21:56:14.473Z,57.29
2018-06-28T21:58:51.226Z,57.20
2018-06-28T22:01:20.068Z,58.14
2018-06-28T22:03:48.910Z,57.51
2018-06-28T22:06:17.618Z,57.53
2018-06-28T22:08:46.348Z,57.91
2018-06-28T22:11:32.768Z,58.24
2018-06-28T22:14:01.766Z,58.36
2018-06-28T22:16:42.351Z,57.75
2018-06-28T22:19:20.482Z,56.84
2018-06-28T22:22:07.500Z,56.56
2018-06-28T22:24:58.309Z,56.58
2018-06-28T22:27:30.098Z,56.50
2018-06-28T22:30:00.493Z,56.81
2018-06-28T22:32:29.150Z,56.74
2018-06-28T22:34:58.137Z,55.54
2018-06-28T22:37:27.004Z,55.68
2018-06-28T22:39:56.383Z,56.23
2018-06-28T22:42:25.273Z,55.98
2018-06-28T22:44:54.173Z,55.83
2018-06-28T22:47:22.918Z,55.71
2018-06-28T22:49:51.625Z,55.83
2018-06-28T22:52:20.447Z,55.78
2018-06-28T22:54:49.546Z,55.81
2018-06-28T22:57:18.403Z,56.10
2018-06-28T22:59:47.198Z,57.17
2018-06-28T23:02:16.057Z,57.12
2018-06-28T23:04:45.014Z,57.52
2018-06-28T23:07:13.885Z,56.79
2018-06-28T23:09:42.714Z,56.52
2018-06-28T23:12:11.536Z,56.20
2018-06-28T23:14:40.357Z,55.95
2018-06-28T23:17:09.116Z,55.66
2018-06-28T23:19:37.930Z,55.83
2018-06-28T23:22:06.861Z,55.66
2018-06-28T23:24:35.705Z,56.97
2018-06-28T23:27:04.544Z,57.97
2018-06-28T23:29:33.295Z,58.28
2018-06-28T23:32:02.193Z,58.62
2018-06-28T23:34:30.887Z,58.02
2018-06-28T23:36:59.629Z,58.14
2018-06-28T23:39:29.924Z,58.29
2018-06-28T23:41:58.971Z,57.90
2018-06-28T23:44:27.742Z,57.93
2018-06-28T23:46:56.514Z,58.08
2018-06-28T23:49:25.211Z,57.49
2018-06-28T23:51:53.896Z,57.96
2018-06-28T23:54:22.574Z,57.92
2018-06-28T23:56:51.798Z,58.01
2018-06-28T23:59:20.376Z,57.86
